createdAt,value
2019-05-16T00:04:37.805Z,101687.69
2019-05-16T00:10:44.537Z,101685.53
2019-05-16T00:16:50.437Z,101690.70
2019-05-16T00:22:58.616Z,101680.28
2019-05-16T00:29:04.096Z,101678.33
2019-05-16T00:35:12.225Z,101670.89
2019-05-16T00:41:18.810Z,101673.43
2019-05-16T00:47:24.564Z,101667.09
2019-05-16T00:53:30.278Z,101661.19
2019-05-16T00:59:38.086Z,101659.63
2019-05-16T01:05:44.195Z,101652.14
2019-05-16T01:11:51.773Z,101647.31
2019-05-16T01:17:58.854Z,101643.43
2019-05-16T01:24:05.118Z,101631.19
2019-05-16T01:30:11.666Z,101634.64
2019-05-16T01:36:33.021Z,101631.40
2019-05-16T01:42:27.896Z,101616.58
2019-05-16T01:48:33.840Z,101616.13
2019-05-16T01:54:39.726Z,101611.00
2019-05-16T02:00:59.951Z,101601.13
2019-05-16T02:06:55.281Z,101598.38
2019-05-16T02:13:01.032Z,101607.57
2019-05-16T02:19:08.211Z,101599.12
2019-05-16T02:25:15.335Z,101597.80
2019-05-16T02:31:22.735Z,101585.16
2019-05-16T02:37:33.351Z,101579.45
2019-05-16T02:43:36.260Z,101569.45
2019-05-16T02:49:42.386Z,101568.10
2019-05-16T02:55:51.350Z,101565.48
2019-05-16T03:01:55.992Z,101566.18
2019-05-16T03:08:04.143Z,101553.80
2019-05-16T03:14:11.190Z,101558.01
2019-05-16T03:20:17.269Z,101556.06
2019-05-16T03:26:22.990Z,101541.67
2019-05-16T03:32:33.330Z,101523.52
2019-05-16T03:38:36.521Z,101519.14
2019-05-16T03:44:43.159Z,101526.94
2019-05-16T03:50:50.784Z,101523.28
2019-05-16T03:56:57.018Z,101523.28
2019-05-16T04:03:02.960Z,101520.14
2019-05-16T04:09:12.159Z,101520.98
2019-05-16T04:15:17.758Z,101518.55
2019-05-16T04:21:23.601Z,101515.03
2019-05-16T04:27:30.902Z,101511.75
2019-05-16T04:33:37.200Z,101515.02
2019-05-16T04:39:42.982Z,101510.00
2019-05-16T04:45:51.701Z,101512.73
2019-05-16T04:51:56.576Z,101513.33
2019-05-16T04:58:02.869Z,101515.70
2019-05-16T05:04:14.143Z,101512.09
2019-05-16T05:10:16.284Z,101497.39
2019-05-16T05:16:22.396Z,101498.98
2019-05-16T05:22:30.364Z,101482.55
2019-05-16T05:28:36.539Z,101490.23
2019-05-16T05:34:42.733Z,101481.26
2019-05-16T05:40:50.898Z,101480.09
2019-05-16T05:46:56.651Z,101478.45
2019-05-16T05:53:02.587Z,101476.72
2019-05-16T05:59:11.131Z,101477.59
2019-05-16T06:05:16.322Z,101481.17
2019-05-16T06:11:22.474Z,101479.00
2019-05-16T06:17:30.537Z,101483.90
2019-05-16T06:23:35.992Z,101489.59
2019-05-16T06:29:41.779Z,101479.48
2019-05-16T06:35:47.559Z,101475.58
2019-05-16T06:41:54.312Z,101469.40
2019-05-16T06:48:00.731Z,101466.38
2019-05-16T06:54:07.165Z,101460.66
2019-05-16T07:00:13.848Z,101466.38
2019-05-16T07:06:45.722Z,101457.14
2019-05-16T07:12:31.393Z,101461.11
2019-05-16T07:18:35.173Z,101454.05
2019-05-16T07:24:40.942Z,101447.47
2019-05-16T07:30:46.707Z,101436.87
2019-05-16T07:36:52.940Z,101438.66
2019-05-16T07:43:00.061Z,101425.89
2019-05-16T07:49:06.102Z,101421.96
2019-05-16T07:55:12.407Z,101413.63
2019-05-16T08:01:20.053Z,101411.89
2019-05-16T08:07:25.845Z,101411.02
2019-05-16T08:13:31.589Z,101400.89
2019-05-16T08:19:39.389Z,101399.57
2019-05-16T08:25:44.944Z,101391.65
2019-05-16T08:31:52.822Z,101384.16
2019-05-16T08:38:01.069Z,101385.47
2019-05-16T08:44:06.343Z,101385.49
2019-05-16T08:50:14.665Z,101386.37
2019-05-16T08:56:22.619Z,101372.67
2019-05-16T09:02:36.281Z,101368.20
2019-05-16T09:08:36.954Z,101355.69
2019-05-16T09:14:42.671Z,101344.95
2019-05-16T09:20:50.329Z,101342.24
2019-05-16T09:26:57.902Z,101341.34
2019-05-16T09:33:06.322Z,101340.17
2019-05-16T09:39:11.657Z,101341.98
2019-05-16T09:45:18.401Z,101336.23
2019-05-16T09:51:26.918Z,101317.88
2019-05-16T09:57:33.179Z,101317.17
2019-05-16T10:03:38.891Z,101317.95
2019-05-16T10:09:47.029Z,101301.24
2019-05-16T10:15:52.097Z,101295.83
2019-05-16T10:22:00.224Z,101301.65
2019-05-16T10:28:05.599Z,101283.02
2019-05-16T10:34:11.424Z,101281.69
2019-05-16T10:40:18.444Z,101269.41
2019-05-16T10:46:26.775Z,101260.14
2019-05-16T10:52:32.037Z,101245.91
2019-05-16T10:58:58.009Z,101225.30
2019-05-16T11:04:59.257Z,101232.88
2019-05-16T11:10:53.005Z,101222.86
2019-05-16T11:16:59.042Z,101218.20
2019-05-16T11:23:07.671Z,101207.52
2019-05-16T11:29:12.682Z,101201.90
2019-05-16T11:35:18.734Z,101203.29
2019-05-16T11:41:27.487Z,101188.66
2019-05-16T11:47:33.453Z,101183.16
2019-05-16T11:53:39.338Z,101176.30
2019-05-16T11:59:47.129Z,101186.86
2019-05-16T12:05:52.997Z,101178.97
2019-05-16T12:12:03.520Z,101183.91
2019-05-16T12:18:08.672Z,101171.59
2019-05-16T12:24:29.232Z,101156.42
2019-05-16T12:30:23.742Z,101152.10
2019-05-16T12:36:31.516Z,101150.36
2019-05-16T12:42:37.352Z,101140.32
2019-05-16T12:48:43.219Z,101123.15
2019-05-16T12:54:50.389Z,101110.12
2019-05-16T13:00:57.930Z,101100.11
2019-05-16T13:07:08.820Z,101100.80
2019-05-16T13:13:11.690Z,101094.78
2019-05-16T13:19:18.297Z,101101.66
2019-05-16T13:25:24.382Z,101080.77
2019-05-16T13:31:30.308Z,101086.30
2019-05-16T13:37:36.258Z,101075.80
2019-05-16T13:43:42.246Z,101061.33
2019-05-16T13:49:48.011Z,101062.24
2019-05-16T13:55:53.753Z,101062.89
2019-05-16T14:01:59.647Z,101047.73
2019-05-16T14:08:06.815Z,101040.25
2019-05-16T14:14:13.267Z,101041.98
2019-05-16T14:20:19.419Z,101038.08
2019-05-16T14:26:25.243Z,101030.12
2019-05-16T14:32:31.133Z,101019.20
2019-05-16T14:38:37.566Z,101017.25
2019-05-16T14:44:59.866Z,101010.63
2019-05-16T14:50:51.210Z,101005.33
2019-05-16T14:57:01.198Z,100995.77
2019-05-16T15:03:07.926Z,100990.27
2019-05-16T15:09:12.231Z,100983.79
2019-05-16T15:15:24.169Z,100973.20
2019-05-16T15:21:25.909Z,100965.71
2019-05-16T15:27:31.974Z,100951.59
2019-05-16T15:33:37.734Z,100942.09
2019-05-16T15:39:43.717Z,100945.31
2019-05-16T15:45:52.924Z,100939.67
2019-05-16T15:51:57.891Z,100943.75
2019-05-16T15:58:07.401Z,100938.42
2019-05-16T16:04:12.528Z,100925.48
2019-05-16T16:10:23.109Z,100919.22
2019-05-16T16:16:28.977Z,100903.91
2019-05-16T16:22:37.534Z,100897.85
2019-05-16T16:28:42.460Z,100887.67
2019-05-16T16:34:49.159Z,100888.64
2019-05-16T16:40:57.453Z,100880.67
2019-05-16T16:47:10.038Z,100876.80
2019-05-16T16:53:17.637Z,100869.95
2019-05-16T16:59:27.831Z,100867.87
2019-05-16T17:05:32.311Z,100862.12
2019-05-16T17:11:38.139Z,100854.37
2019-05-16T17:17:43.902Z,100842.36
2019-05-16T17:23:49.647Z,100836.21
2019-05-16T17:29:56.853Z,100832.77
2019-05-16T17:36:03.056Z,100816.54
2019-05-16T17:42:08.981Z,100814.43
2019-05-16T17:48:17.304Z,100810.31
2019-05-16T17:54:22.496Z,100802.58
2019-05-16T18:00:29.376Z,100794.88
2019-05-16T18:06:37.080Z,100796.59
2019-05-16T18:12:43.231Z,100793.14
2019-05-16T18:18:49.697Z,100792.55
2019-05-16T18:24:57.723Z,100782.90
2019-05-16T18:31:03.827Z,100784.46
2019-05-16T18:37:09.746Z,100787.47
2019-05-16T18:43:16.622Z,100777.23
2019-05-16T18:49:24.114Z,100782.70
2019-05-16T18:55:30.151Z,100782.06
2019-05-16T19:01:37.559Z,100777.05
2019-05-16T19:07:43.571Z,100790.22
2019-05-16T19:13:49.332Z,100793.73
2019-05-16T19:19:56.989Z,100795.92
2019-05-16T19:26:02.901Z,100783.82
2019-05-16T19:32:08.687Z,100791.16
2019-05-16T19:38:14.463Z,100785.47
2019-05-16T19:44:20.412Z,100785.19
2019-05-16T19:50:26.797Z,100782.55
2019-05-16T19:56:32.673Z,100780.88
2019-05-16T20:02:38.648Z,100782.66
2019-05-16T20:08:44.747Z,100785.03
2019-05-16T20:14:50.633Z,100779.05
2019-05-16T20:20:56.949Z,100782.14
2019-05-16T20:27:05.128Z,100778.69
2019-05-16T20:33:10.902Z,100766.81
2019-05-16T20:39:17.385Z,100756.17
2019-05-16T20:45:23.356Z,100759.30
2019-05-16T20:51:29.185Z,100757.66
2019-05-16T20:57:37.669Z,100749.73
2019-05-16T21:03:43.732Z,100746.19
2019-05-16T21:09:50.029Z,100747.20
2019-05-16T21:15:57.717Z,100744.98
2019-05-16T21:22:03.895Z,100743.25
2019-05-16T21:28:09.780Z,100744.16
2019-05-16T21:34:16.133Z,100732.38
2019-05-16T21:40:26.311Z,100733.38
2019-05-16T21:46:31.457Z,100718.81
2019-05-16T21:52:37.266Z,100720.09
2019-05-16T21:58:43.004Z,100713.17
2019-05-16T22:04:48.807Z,100703.88
2019-05-16T22:10:57.121Z,100706.09
2019-05-16T22:17:02.248Z,100703.05
2019-05-16T22:23:08.462Z,100701.36
2019-05-16T22:29:14.437Z,100696.94
2019-05-16T22:35:21.859Z,100689.44
2019-05-16T22:41:28.305Z,100675.84
2019-05-16T22:47:34.218Z,100672.33
2019-05-16T22:53:40.842Z,100664.41
2019-05-16T22:59:47.077Z,100648.62
2019-05-16T23:05:53.003Z,100643.41
2019-05-16T23:11:58.820Z,100643.44
2019-05-16T23:18:06.753Z,100640.76
2019-05-16T23:24:12.298Z,100633.39
2019-05-16T23:30:18.420Z,100633.80
2019-05-16T23:36:26.470Z,100616.64
2019-05-16T23:42:32.497Z,100617.46
2019-05-16T23:48:38.541Z,100613.97
2019-05-16T23:54:44.556Z,100600.88
